createdAt,value
2019-04-16T00:02:04.754Z,100929.66
2019-04-16T00:04:53.644Z,100923.66
2019-04-16T00:07:34.332Z,100919.67
2019-04-16T00:10:22.004Z,100917.34
2019-04-16T00:13:09.679Z,100918.50
2019-04-16T00:15:41.004Z,100917.02
2019-04-16T00:18:08.685Z,100916.40
2019-04-16T00:20:43.003Z,100918.37
2019-04-16T00:23:18.420Z,100909.95
2019-04-16T00:25:46.525Z,100899.28
2019-04-16T00:28:14.673Z,100909.55
2019-04-16T00:30:42.974Z,100916.03
2019-04-16T00:33:11.590Z,100913.61
2019-04-16T00:35:39.532Z,100906.87
2019-04-16T00:38:07.735Z,100908.75
2019-04-16T00:40:35.841Z,100910.77
2019-04-16T00:43:04.567Z,100904.84
2019-04-16T00:45:32.689Z,100906.50
2019-04-16T00:48:00.744Z,100908.42
2019-04-16T00:50:31.192Z,100899.62
2019-04-16T00:52:59.253Z,100899.91
2019-04-16T00:55:27.340Z,100904.63
2019-04-16T00:57:55.531Z,100899.66
2019-04-16T01:00:23.663Z,100895.42
2019-04-16T01:02:51.657Z,100896.94
2019-04-16T01:05:19.907Z,100900.25
2019-04-16T01:07:48.184Z,100893.14
2019-04-16T01:10:16.626Z,100901.11
2019-04-16T01:12:44.851Z,100905.98
2019-04-16T01:15:13.003Z,100895.42
2019-04-16T01:17:40.854Z,100898.98
2019-04-16T01:20:11.930Z,100896.27
2019-04-16T01:22:38.921Z,100895.64
2019-04-16T01:25:07.300Z,100891.16
2019-04-16T01:27:42.180Z,100899.23
2019-04-16T01:30:13.026Z,100897.73
2019-04-16T01:32:49.474Z,100898.30
2019-04-16T01:35:35.656Z,100894.19
2019-04-16T01:38:27.670Z,100897.00
2019-04-16T01:40:59.003Z,100895.88
2019-04-16T01:43:27.047Z,100890.08
2019-04-16T01:45:55.149Z,100891.96
2019-04-16T01:48:23.104Z,100893.44
2019-04-16T01:50:51.205Z,100894.11
2019-04-16T01:53:24.201Z,100892.13
2019-04-16T01:55:56.702Z,100890.27
2019-04-16T01:58:22.359Z,100898.80
2019-04-16T02:00:50.491Z,100895.44
2019-04-16T02:03:18.594Z,100894.95
2019-04-16T02:05:46.696Z,100896.00
2019-04-16T02:08:14.782Z,100900.50
2019-04-16T02:10:42.889Z,100901.52
2019-04-16T02:13:14.523Z,100900.88
2019-04-16T02:15:41.545Z,100905.56
2019-04-16T02:18:09.640Z,100907.88
2019-04-16T02:20:39.493Z,100911.18
2019-04-16T02:23:07.703Z,100911.25
2019-04-16T02:25:35.902Z,100917.06
2019-04-16T02:28:04.619Z,100916.04
2019-04-16T02:30:37.221Z,100917.05
2019-04-16T02:33:02.700Z,100916.78
2019-04-16T02:35:30.836Z,100921.66
2019-04-16T02:37:59.103Z,100915.55
2019-04-16T02:40:27.092Z,100918.54
2019-04-16T02:42:55.244Z,100914.04
2019-04-16T02:45:24.406Z,100916.39
2019-04-16T02:47:52.763Z,100912.16
2019-04-16T02:50:30.245Z,100886.86
2019-04-16T02:53:11.980Z,100912.91
2019-04-16T02:56:17.370Z,100910.09
2019-04-16T02:58:46.894Z,100910.75
2019-04-16T03:01:32.853Z,100915.31
2019-04-16T03:04:08.426Z,100917.73
2019-04-16T03:06:36.518Z,100918.09
2019-04-16T03:09:09.135Z,100920.70
2019-04-16T03:11:35.993Z,100920.39
2019-04-16T03:14:04.117Z,100916.56
2019-04-16T03:16:50.304Z,100924.05
2019-04-16T03:19:23.883Z,100921.98
2019-04-16T03:21:51.962Z,100922.36
2019-04-16T03:24:19.999Z,100926.84
2019-04-16T03:26:51.278Z,100924.41
2019-04-16T03:29:19.695Z,100923.72
2019-04-16T03:31:47.813Z,100931.20
2019-04-16T03:34:19.278Z,100931.85
2019-04-16T03:36:45.870Z,100929.48
2019-04-16T03:39:14.307Z,100921.73
2019-04-16T03:41:43.455Z,100927.14
2019-04-16T03:44:11.437Z,100934.31
2019-04-16T03:46:40.218Z,100931.41
2019-04-16T03:49:08.474Z,100934.20
2019-04-16T03:51:36.590Z,100934.76
2019-04-16T03:54:05.925Z,100934.38
2019-04-16T03:56:34.061Z,100931.45
2019-04-16T03:59:02.085Z,100928.84
2019-04-16T04:01:29.933Z,100928.94
2019-04-16T04:03:58.584Z,100934.24
2019-04-16T04:06:26.744Z,100930.42
2019-04-16T04:08:54.857Z,100934.03
2019-04-16T04:11:22.876Z,100929.34
2019-04-16T04:13:51.023Z,100932.07
2019-04-16T04:16:19.181Z,100934.30
2019-04-16T04:18:47.287Z,100936.16
2019-04-16T04:21:15.507Z,100937.48
2019-04-16T04:23:43.587Z,100934.55
2019-04-16T04:26:11.709Z,100941.19
2019-04-16T04:28:39.601Z,100939.88
2019-04-16T04:31:07.630Z,100943.88
2019-04-16T04:33:40.443Z,100945.66
2019-04-16T04:36:07.676Z,100950.90
2019-04-16T04:38:37.448Z,100951.28
2019-04-16T04:41:06.476Z,100949.42
2019-04-16T04:43:34.608Z,100958.86
2019-04-16T04:46:02.776Z,100959.17
2019-04-16T04:48:31.725Z,100957.77
2019-04-16T04:50:59.761Z,100965.75
2019-04-16T04:53:27.764Z,100966.52
2019-04-16T04:55:57.222Z,100966.52
2019-04-16T04:58:25.551Z,100966.80
2019-04-16T05:00:53.592Z,100970.09
2019-04-16T05:03:47.567Z,100971.23
2019-04-16T05:06:19.210Z,100969.75
2019-04-16T05:08:47.175Z,100971.27
2019-04-16T05:11:16.947Z,100969.03
2019-04-16T05:13:45.120Z,100973.72
2019-04-16T05:16:15.117Z,100978.78
2019-04-16T05:18:43.034Z,100984.67
2019-04-16T05:21:11.125Z,100986.13
2019-04-16T05:23:40.820Z,100984.64
2019-04-16T05:26:09.953Z,100993.08
2019-04-16T05:28:38.425Z,100990.31
2019-04-16T05:31:08.254Z,100996.52
2019-04-16T05:33:37.344Z,100998.41
2019-04-16T05:36:06.334Z,101003.67
2019-04-16T05:38:34.247Z,101012.59
2019-04-16T05:41:12.669Z,101015.62
2019-04-16T05:43:32.001Z,101018.52
2019-04-16T05:46:00.107Z,101022.27
2019-04-16T05:48:28.574Z,101017.91
2019-04-16T05:50:59.697Z,101023.61
2019-04-16T05:53:26.396Z,101021.01
2019-04-16T05:56:09.530Z,101028.81
2019-04-16T05:58:37.341Z,101024.03
2019-04-16T06:01:24.888Z,101028.47
2019-04-16T06:03:53.322Z,101027.44
2019-04-16T06:06:22.209Z,101028.22
2019-04-16T06:08:50.096Z,101022.98
2019-04-16T06:11:28.624Z,101028.68
2019-04-16T06:13:59.847Z,101023.03
2019-04-16T06:16:56.753Z,101027.83
2019-04-16T06:19:52.644Z,101022.94
2019-04-16T06:22:30.236Z,101027.98
2019-04-16T06:25:23.977Z,101026.42
2019-04-16T06:28:12.102Z,101031.74
2019-04-16T06:31:10.171Z,101032.88
2019-04-16T06:33:57.639Z,101034.91
2019-04-16T06:36:50.967Z,101038.98
2019-04-16T06:39:36.778Z,101043.00
2019-04-16T06:42:27.147Z,101041.48
2019-04-16T06:45:01.561Z,101042.45
2019-04-16T06:47:58.337Z,101044.33
2019-04-16T06:50:46.535Z,101043.08
2019-04-16T06:53:49.068Z,101043.55
2019-04-16T06:56:32.494Z,101039.78
2019-04-16T06:59:11.967Z,101029.75
2019-04-16T07:02:18.660Z,101037.08
2019-04-16T07:05:06.029Z,101038.47
2019-04-16T07:08:02.232Z,101042.12
2019-04-16T07:10:43.985Z,101039.69
2019-04-16T07:13:03.869Z,101040.87
2019-04-16T07:15:32.453Z,101035.30
2019-04-16T07:18:02.522Z,101036.86
2019-04-16T07:20:30.300Z,101038.34
2019-04-16T07:22:58.324Z,101029.61
2019-04-16T07:25:27.962Z,101030.85
2019-04-16T07:28:06.300Z,101030.50
2019-04-16T07:30:40.605Z,101031.59
2019-04-16T07:33:27.020Z,101022.08
2019-04-16T07:36:04.903Z,101024.95
2019-04-16T07:38:42.271Z,101026.98
2019-04-16T07:41:26.549Z,101033.49
2019-04-16T07:44:11.229Z,101025.78
2019-04-16T07:46:59.088Z,101027.89
2019-04-16T07:49:37.696Z,101019.23
2019-04-16T07:52:31.260Z,101024.38
2019-04-16T07:55:26.570Z,101020.32
2019-04-16T07:57:54.477Z,101017.12
2019-04-16T08:00:22.631Z,101021.79
2019-04-16T08:02:53.559Z,101019.88
2019-04-16T08:05:20.572Z,101019.45
2019-04-16T08:07:49.812Z,101015.81
2019-04-16T08:10:19.029Z,101022.39
2019-04-16T08:13:04.630Z,101016.27
2019-04-16T08:15:32.709Z,101001.02
2019-04-16T08:18:00.712Z,101006.73
2019-04-16T08:20:28.757Z,101004.52
2019-04-16T08:23:00.124Z,101004.98
2019-04-16T08:25:33.654Z,100977.30
2019-04-16T08:27:59.539Z,101003.84
2019-04-16T08:30:27.582Z,101004.55
2019-04-16T08:32:56.412Z,100996.11
2019-04-16T08:35:24.507Z,100993.81
2019-04-16T08:37:52.376Z,100992.98
2019-04-16T08:40:20.352Z,100994.81
2019-04-16T08:42:48.514Z,100997.73
2019-04-16T08:45:16.668Z,100992.65
2019-04-16T08:47:45.995Z,100988.09
2019-04-16T08:50:14.302Z,100992.41
2019-04-16T08:52:42.614Z,100989.00
2019-04-16T08:55:10.863Z,100987.97
2019-04-16T08:57:39.803Z,100985.08
2019-04-16T09:00:14.146Z,100985.67
2019-04-16T09:02:40.908Z,100983.59
2019-04-16T09:05:11.409Z,100988.38
2019-04-16T09:07:39.642Z,100984.33
2019-04-16T09:10:18.134Z,100981.36
2019-04-16T09:12:45.562Z,100974.55
2019-04-16T09:15:16.961Z,100982.77
2019-04-16T09:17:47.586Z,100984.84
2019-04-16T09:20:17.771Z,100987.20
2019-04-16T09:22:49.435Z,100984.36
2019-04-16T09:25:35.317Z,100982.22
2019-04-16T09:28:35.563Z,100985.03
2019-04-16T09:31:22.036Z,100983.70
2019-04-16T09:34:09.609Z,100982.50
2019-04-16T09:36:59.546Z,100981.30
2019-04-16T09:39:45.312Z,100975.10
2019-04-16T09:42:13.264Z,100975.52
2019-04-16T09:44:41.314Z,100983.38
2019-04-16T09:47:09.506Z,100979.02
2019-04-16T09:49:38.403Z,100987.67
2019-04-16T09:52:06.477Z,100981.55
2019-04-16T09:54:34.504Z,100979.95
2019-04-16T09:57:03.128Z,100981.55
2019-04-16T09:59:39.700Z,100982.51
2019-04-16T10:02:14.242Z,100972.63
2019-04-16T10:04:42.138Z,100975.72
2019-04-16T10:07:10.176Z,100976.72
2019-04-16T10:09:38.815Z,100977.39
2019-04-16T10:12:07.972Z,100970.78
2019-04-16T10:14:36.961Z,100971.09
2019-04-16T10:17:06.949Z,100966.75
2019-04-16T10:19:35.011Z,100964.27
2019-04-16T10:22:03.149Z,100964.27
2019-04-16T10:24:50.574Z,100968.22
2019-04-16T10:27:33.847Z,100963.52
2019-04-16T10:30:02.080Z,100958.44
2019-04-16T10:32:30.270Z,100954.12
2019-04-16T10:34:58.306Z,100952.00
2019-04-16T10:37:26.274Z,100947.88
2019-04-16T10:40:13.931Z,100947.88
2019-04-16T10:43:07.363Z,100947.43
2019-04-16T10:45:52.869Z,100945.23
2019-04-16T10:48:39.401Z,100947.98
2019-04-16T10:51:29.565Z,100947.98
2019-04-16T10:54:15.136Z,100950.56
2019-04-16T10:57:01.749Z,100932.52
2019-04-16T10:59:58.493Z,100939.53
2019-04-16T11:03:04.585Z,100939.53
2019-04-16T11:05:46.227Z,100927.61
2019-04-16T11:08:14.800Z,100927.61
2019-04-16T11:10:42.796Z,100933.16
2019-04-16T11:13:16.184Z,100925.62
2019-04-16T11:15:44.304Z,100923.62
2019-04-16T11:18:12.184Z,100923.62
2019-04-16T11:20:40.270Z,100928.28
2019-04-16T11:23:08.282Z,100927.45
2019-04-16T11:25:36.391Z,100919.38
2019-04-16T11:28:04.383Z,100923.70
2019-04-16T11:30:41.773Z,100920.35
2019-04-16T11:33:09.853Z,100921.48
2019-04-16T11:35:38.054Z,100923.48
2019-04-16T11:38:06.039Z,100925.47
2019-04-16T11:40:34.501Z,100925.09
2019-04-16T11:43:03.230Z,100917.25
2019-04-16T11:45:31.657Z,100918.47
2019-04-16T11:47:59.660Z,100919.45
2019-04-16T11:50:28.391Z,100928.61
2019-04-16T11:52:58.157Z,100911.30
2019-04-16T11:55:26.563Z,100911.60
2019-04-16T11:57:54.774Z,100912.91
2019-04-16T12:00:33.113Z,100918.23
2019-04-16T12:03:23.755Z,100914.63
2019-04-16T12:06:10.458Z,100919.42
2019-04-16T12:08:56.879Z,100917.14
2019-04-16T12:11:40.409Z,100903.41
2019-04-16T12:14:31.002Z,100903.41
2019-04-16T12:17:15.844Z,100913.22
2019-04-16T12:20:05.135Z,100903.48
2019-04-16T12:22:55.179Z,100890.42
2019-04-16T12:25:43.375Z,100890.42
2019-04-16T12:28:29.306Z,100891.95
2019-04-16T12:31:17.224Z,100891.78
2019-04-16T12:34:03.777Z,100879.68
2019-04-16T12:36:54.234Z,100879.68
2019-04-16T12:39:48.451Z,100882.56
2019-04-16T12:42:24.625Z,100876.91
2019-04-16T12:44:56.293Z,100874.39
2019-04-16T12:47:42.177Z,100872.14
2019-04-16T12:50:19.968Z,100870.80
2019-04-16T12:53:06.088Z,100871.95
2019-04-16T12:55:52.276Z,100860.58
2019-04-16T12:58:50.423Z,100862.98
2019-04-16T13:01:44.082Z,100869.36
2019-04-16T13:04:22.415Z,100865.52
2019-04-16T13:07:05.362Z,100868.14
2019-04-16T13:10:02.392Z,100865.49
2019-04-16T13:12:48.287Z,100860.11
2019-04-16T13:15:40.441Z,100863.50
2019-04-16T13:18:17.776Z,100867.42
2019-04-16T13:21:07.669Z,100860.73
2019-04-16T13:23:57.739Z,100855.32
2019-04-16T13:26:45.307Z,100855.28
2019-04-16T13:29:17.202Z,100850.86
2019-04-16T13:31:45.609Z,100855.30
2019-04-16T13:34:18.375Z,100848.86
2019-04-16T13:36:43.570Z,100842.41
2019-04-16T13:39:25.316Z,100858.10
2019-04-16T13:41:53.403Z,100852.20
2019-04-16T13:44:23.253Z,100849.34
2019-04-16T13:46:51.117Z,100853.70
2019-04-16T13:49:24.841Z,100851.03
2019-04-16T13:51:52.850Z,100844.73
2019-04-16T13:54:40.108Z,100852.87
2019-04-16T13:57:12.070Z,100850.70
2019-04-16T14:00:04.426Z,100843.23
2019-04-16T14:02:43.718Z,100845.00
2019-04-16T14:05:12.343Z,100829.50
2019-04-16T14:07:40.412Z,100845.33
2019-04-16T14:10:08.545Z,100852.17
2019-04-16T14:12:42.198Z,100850.70
2019-04-16T14:15:07.950Z,100841.20
2019-04-16T14:17:51.334Z,100837.86
2019-04-16T14:20:08.556Z,100835.03
2019-04-16T14:22:37.689Z,100842.86
2019-04-16T14:25:06.775Z,100838.66
2019-04-16T14:27:34.672Z,100840.56
2019-04-16T14:30:09.984Z,100837.58
2019-04-16T14:32:55.478Z,100836.33
2019-04-16T14:35:33.557Z,100834.48
2019-04-16T14:37:55.911Z,100823.98
2019-04-16T14:40:24.795Z,100829.79
2019-04-16T14:42:56.636Z,100832.17
2019-04-16T14:45:56.737Z,100826.55
2019-04-16T14:48:12.744Z,100822.61
2019-04-16T14:50:40.822Z,100818.09
2019-04-16T14:53:08.909Z,100822.11
2019-04-16T14:55:59.647Z,100825.06
2019-04-16T14:58:40.556Z,100821.43
2019-04-16T15:01:27.933Z,100825.89
2019-04-16T15:04:33.663Z,100822.34
2019-04-16T15:07:23.651Z,100823.67
2019-04-16T15:10:14.012Z,100825.13
2019-04-16T15:12:49.658Z,100827.27
2019-04-16T15:15:27.643Z,100824.45
2019-04-16T15:18:15.080Z,100829.10
2019-04-16T15:21:03.391Z,100828.53
2019-04-16T15:24:01.603Z,100826.32
2019-04-16T15:26:52.648Z,100827.78
2019-04-16T15:29:27.717Z,100825.09
2019-04-16T15:32:05.921Z,100828.26
2019-04-16T15:34:42.789Z,100833.70
2019-04-16T15:37:44.927Z,100830.99
2019-04-16T15:40:20.088Z,100828.91
2019-04-16T15:43:19.290Z,100825.89
2019-04-16T15:46:26.202Z,100826.22
2019-04-16T15:49:10.535Z,100827.34
2019-04-16T15:51:44.499Z,100829.56
2019-04-16T15:54:31.184Z,100827.14
2019-04-16T15:57:19.135Z,100832.45
2019-04-16T15:59:55.956Z,100830.33
2019-04-16T16:02:41.369Z,100833.30
2019-04-16T16:05:20.050Z,100831.30
2019-04-16T16:07:56.546Z,100829.98
2019-04-16T16:10:28.383Z,100835.34
2019-04-16T16:12:56.467Z,100831.58
2019-04-16T16:15:24.622Z,100838.12
2019-04-16T16:17:52.447Z,100836.01
2019-04-16T16:20:21.069Z,100837.02
2019-04-16T16:22:49.006Z,100834.42
2019-04-16T16:25:17.006Z,100839.91
2019-04-16T16:27:47.160Z,100834.13
2019-04-16T16:30:15.688Z,100836.86
2019-04-16T16:32:43.834Z,100834.63
2019-04-16T16:35:17.035Z,100832.84
2019-04-16T16:37:41.778Z,100843.33
2019-04-16T16:40:12.047Z,100840.55
2019-04-16T16:42:39.775Z,100847.47
2019-04-16T16:45:08.083Z,100850.39
2019-04-16T16:47:39.932Z,100850.59
2019-04-16T16:50:11.526Z,100852.98
2019-04-16T16:53:05.858Z,100848.27
2019-04-16T16:55:37.189Z,100850.82
2019-04-16T16:58:39.623Z,100855.70
2019-04-16T17:01:26.598Z,100855.56
2019-04-16T17:04:07.096Z,100854.91
2019-04-16T17:06:35.511Z,100860.63
2019-04-16T17:09:06.018Z,100858.67
2019-04-16T17:11:33.912Z,100864.48
2019-04-16T17:14:03.139Z,100865.02
2019-04-16T17:16:31.526Z,100867.55
2019-04-16T17:18:59.327Z,100867.31
2019-04-16T17:21:27.310Z,100867.42
2019-04-16T17:23:55.633Z,100862.63
2019-04-16T17:26:33.553Z,100862.67
2019-04-16T17:29:01.450Z,100869.72
2019-04-16T17:31:29.414Z,100870.44
2019-04-16T17:33:57.402Z,100873.96
2019-04-16T17:36:25.342Z,100878.97
2019-04-16T17:38:54.430Z,100877.48
2019-04-16T17:41:25.971Z,100879.71
2019-04-16T17:44:31.154Z,100877.86
2019-04-16T17:47:08.202Z,100883.05
2019-04-16T17:49:50.539Z,100882.20
2019-04-16T17:52:31.371Z,100896.58
2019-04-16T17:55:05.231Z,100895.91
2019-04-16T17:57:49.108Z,100898.26
2019-04-16T18:00:40.951Z,100905.24
2019-04-16T18:03:38.624Z,100888.20
2019-04-16T18:06:31.889Z,100913.06
2019-04-16T18:09:22.146Z,100915.89
2019-04-16T18:12:27.627Z,100919.05
2019-04-16T18:15:07.178Z,100922.89
2019-04-16T18:18:05.524Z,100930.16
2019-04-16T18:20:39.495Z,100931.13
2019-04-16T18:23:32.902Z,100934.57
2019-04-16T18:26:18.681Z,100856.92
2019-04-16T18:29:00.821Z,100946.33
2019-04-16T18:31:41.711Z,100943.89
2019-04-16T18:34:47.086Z,100946.22
2019-04-16T18:37:34.457Z,100943.22
2019-04-16T18:40:27.948Z,100953.39
2019-04-16T18:43:14.042Z,100962.41
2019-04-16T18:46:10.967Z,100964.09
2019-04-16T18:48:44.609Z,100967.61
2019-04-16T18:51:10.889Z,100970.38
2019-04-16T18:53:40.310Z,100973.32
2019-04-16T18:56:08.585Z,100972.71
2019-04-16T18:58:36.586Z,100981.41
2019-04-16T19:01:13.477Z,100974.30
2019-04-16T19:03:41.350Z,100981.61
2019-04-16T19:06:09.656Z,100991.49
2019-04-16T19:08:41.950Z,100996.30
2019-04-16T19:11:07.682Z,100996.30
2019-04-16T19:13:35.735Z,101003.92
2019-04-16T19:16:03.921Z,100997.62
2019-04-16T19:18:31.767Z,100998.77
2019-04-16T19:20:59.865Z,101002.87
2019-04-16T19:23:27.799Z,101004.23
2019-04-16T19:25:56.755Z,101000.67
2019-04-16T19:28:24.900Z,101007.69
2019-04-16T19:30:59.969Z,101009.66
2019-04-16T19:33:33.419Z,101006.30
2019-04-16T19:35:58.075Z,101015.25
2019-04-16T19:38:26.441Z,101017.63
2019-04-16T19:40:54.739Z,101029.82
2019-04-16T19:43:22.837Z,101031.66
2019-04-16T19:45:50.863Z,101029.48
2019-04-16T19:48:34.238Z,101030.13
2019-04-16T19:50:48.822Z,101030.12
2019-04-16T19:53:17.337Z,101030.13
2019-04-16T19:55:46.620Z,101031.14
2019-04-16T19:58:15.069Z,101031.02
2019-04-16T20:00:43.116Z,101031.02
2019-04-16T20:03:11.175Z,101030.25
2019-04-16T20:05:39.011Z,101042.70
2019-04-16T20:08:07.029Z,101038.50
2019-04-16T20:10:34.909Z,101038.50
2019-04-16T20:13:03.121Z,101031.91
2019-04-16T20:15:31.072Z,101047.50
2019-04-16T20:17:59.341Z,101046.10
2019-04-16T20:20:27.435Z,101049.58
2019-04-16T20:22:55.376Z,101044.05
2019-04-16T20:25:23.589Z,101044.05
2019-04-16T20:27:52.157Z,101043.66
2019-04-16T20:30:22.971Z,101039.73
2019-04-16T20:33:05.911Z,101043.17
2019-04-16T20:35:33.929Z,101043.17
2019-04-16T20:38:02.213Z,101040.87
2019-04-16T20:40:30.251Z,101040.87
2019-04-16T20:42:58.274Z,101048.15
2019-04-16T20:45:26.549Z,101049.36
2019-04-16T20:47:54.564Z,101049.36
2019-04-16T20:50:22.835Z,101053.86
2019-04-16T20:52:50.886Z,101051.38
2019-04-16T20:55:18.785Z,101051.77
2019-04-16T20:57:47.576Z,101051.77
2019-04-16T21:00:20.972Z,101043.16
2019-04-16T21:02:51.119Z,101052.23
2019-04-16T21:05:22.298Z,101047.33
2019-04-16T21:07:48.688Z,101052.19
2019-04-16T21:10:16.709Z,101053.48
2019-04-16T21:12:45.323Z,101054.91
2019-04-16T21:15:14.148Z,101066.12
2019-04-16T21:17:42.138Z,101069.85
2019-04-16T21:20:10.308Z,101077.42
2019-04-16T21:22:39.757Z,101076.70
2019-04-16T21:25:12.999Z,101081.02
2019-04-16T21:27:47.671Z,101082.69
2019-04-16T21:30:16.280Z,101080.66
2019-04-16T21:33:06.480Z,101083.00
2019-04-16T21:35:38.537Z,101081.69
2019-04-16T21:38:15.004Z,101084.02
2019-04-16T21:40:42.870Z,101086.32
2019-04-16T21:43:10.985Z,101086.93
2019-04-16T21:45:39.050Z,101080.92
2019-04-16T21:48:07.138Z,101091.16
2019-04-16T21:50:35.027Z,101091.63
2019-04-16T21:53:02.955Z,101092.84
2019-04-16T21:55:32.895Z,101089.98
2019-04-16T21:58:01.083Z,101090.59
2019-04-16T22:00:47.494Z,101090.48
2019-04-16T22:03:16.746Z,101088.55
2019-04-16T22:05:51.899Z,101085.94
2019-04-16T22:08:19.747Z,101090.63
2019-04-16T22:10:47.624Z,101088.84
2019-04-16T22:13:19.094Z,101085.72
2019-04-16T22:15:46.140Z,101089.72
2019-04-16T22:18:14.189Z,101094.19
2019-04-16T22:20:42.167Z,101091.28
2019-04-16T22:23:10.013Z,101099.61
2019-04-16T22:25:38.228Z,101094.66
2019-04-16T22:28:11.688Z,101101.06
2019-04-16T22:30:38.276Z,101100.09
2019-04-16T22:33:07.477Z,101099.72
2019-04-16T22:35:36.867Z,101096.45
2019-04-16T22:38:05.099Z,101102.23
2019-04-16T22:41:07.701Z,101103.80
2019-04-16T22:43:55.124Z,101099.22
2019-04-16T22:46:51.198Z,101101.39
2019-04-16T22:49:22.441Z,101105.83
2019-04-16T22:51:49.319Z,101099.70
2019-04-16T22:54:17.724Z,101107.41
2019-04-16T22:57:06.979Z,101103.42
2019-04-16T22:59:39.071Z,101100.65
2019-04-16T23:02:18.155Z,101094.87
2019-04-16T23:04:46.171Z,101092.34
2019-04-16T23:07:14.346Z,101097.50
2019-04-16T23:09:42.578Z,101096.05
2019-04-16T23:12:10.517Z,101095.92
2019-04-16T23:14:38.547Z,101094.34
2019-04-16T23:17:06.669Z,101095.43
2019-04-16T23:19:34.625Z,101101.91
2019-04-16T23:22:02.730Z,101099.00
2019-04-16T23:24:30.580Z,101102.00
2019-04-16T23:27:04.148Z,101104.75
2019-04-16T23:29:28.519Z,101098.14
2019-04-16T23:31:56.397Z,101099.70
2019-04-16T23:34:24.380Z,101079.48
2019-04-16T23:36:52.527Z,101094.52
2019-04-16T23:39:23.447Z,101093.05
2019-04-16T23:41:51.640Z,101089.55
2019-04-16T23:44:45.743Z,101091.10
2019-04-16T23:47:42.388Z,101087.38
2019-04-16T23:50:43.779Z,101087.00
2019-04-16T23:53:07.225Z,101085.91
2019-04-16T23:56:04.365Z,101088.28
2019-04-16T23:58:49.644Z,101080.86
